createdAt,value
2019-05-25T00:00:54.793Z,5.05
2019-05-25T00:03:24.257Z,5.55
2019-05-25T00:05:53.717Z,5.47
2019-05-25T00:08:24.184Z,5.17
2019-05-25T00:10:53.659Z,5.45
2019-05-25T00:13:24.184Z,5.28
2019-05-25T00:15:53.647Z,6.03
2019-05-25T00:18:23.106Z,6.20
2019-05-25T00:20:52.519Z,5.80
2019-05-25T00:23:21.957Z,6.60
2019-05-25T00:25:51.422Z,5.92
2019-05-25T00:28:20.817Z,6.08
2019-05-25T00:30:50.203Z,6.05
2019-05-25T00:33:19.592Z,6.25
2019-05-25T00:35:49.061Z,6.00
2019-05-25T00:38:18.615Z,6.35
2019-05-25T00:41:02.267Z,6.12
2019-05-25T00:43:31.671Z,5.90
2019-05-25T00:46:01.061Z,5.80
2019-05-25T00:48:30.544Z,6.47
2019-05-25T00:51:00.022Z,6.72
2019-05-25T00:53:29.480Z,5.92
2019-05-25T00:55:58.895Z,6.70
2019-05-25T00:58:28.281Z,6.75
2019-05-25T01:00:57.692Z,6.42
2019-05-25T01:03:27.133Z,6.33
2019-05-25T01:05:56.596Z,7.22
2019-05-25T01:08:26.052Z,6.42
2019-05-25T01:10:55.532Z,6.35
2019-05-25T01:13:24.972Z,6.70
2019-05-25T01:15:54.436Z,6.65
2019-05-25T01:18:23.828Z,6.50
2019-05-25T01:20:53.226Z,7.03
2019-05-25T01:23:22.621Z,6.10
2019-05-25T01:25:52.076Z,6.58
2019-05-25T01:28:21.467Z,6.47
2019-05-25T01:30:50.859Z,6.58
2019-05-25T01:33:20.248Z,6.97
2019-05-25T01:35:49.646Z,7.03
2019-05-25T01:38:19.101Z,6.80
2019-05-25T01:40:48.580Z,6.10
2019-05-25T01:43:17.984Z,7.83
2019-05-25T01:45:47.383Z,6.75
2019-05-25T01:48:17.812Z,7.03
2019-05-25T01:50:47.258Z,7.22
2019-05-25T01:53:16.634Z,7.70
2019-05-25T01:55:46.023Z,7.20
2019-05-25T01:58:15.428Z,7.17
2019-05-25T02:00:44.998Z,8.38
2019-05-25T02:03:14.437Z,7.45
2019-05-25T02:05:43.844Z,7.58
2019-05-25T02:08:13.220Z,7.42
2019-05-25T02:10:42.627Z,7.95
2019-05-25T02:13:12.046Z,7.12
2019-05-25T02:15:41.475Z,7.75
2019-05-25T02:18:10.956Z,7.80
2019-05-25T02:20:40.421Z,8.93
2019-05-25T02:23:09.824Z,8.18
2019-05-25T02:25:39.295Z,7.67
2019-05-25T02:28:08.752Z,7.45
2019-05-25T02:30:38.136Z,7.50
2019-05-25T02:33:07.529Z,8.28
2019-05-25T02:35:38.189Z,7.42
2019-05-25T02:38:09.280Z,7.50
2019-05-25T02:40:38.679Z,8.68
2019-05-25T02:43:08.343Z,8.05
2019-05-25T02:45:37.736Z,8.10
2019-05-25T02:48:07.196Z,8.48
2019-05-25T02:50:39.900Z,8.18
2019-05-25T02:55:52.057Z,8.20
2019-05-25T02:58:21.512Z,8.00
2019-05-25T03:00:51.081Z,8.73
2019-05-25T03:03:20.720Z,8.23
2019-05-25T03:05:51.027Z,7.85
2019-05-25T03:08:20.487Z,8.05
2019-05-25T03:10:49.954Z,7.87
2019-05-25T03:13:19.675Z,8.13
2019-05-25T03:15:49.082Z,7.92
2019-05-25T03:18:18.544Z,7.30
2019-05-25T03:20:48.969Z,8.15
2019-05-25T03:23:18.362Z,7.78
2019-05-25T03:25:50.010Z,7.95
2019-05-25T03:28:19.587Z,7.28
2019-05-25T03:30:48.995Z,7.47
2019-05-25T03:33:18.445Z,7.08
2019-05-25T03:35:48.971Z,8.00
2019-05-25T03:38:18.446Z,8.23
2019-05-25T03:40:47.891Z,7.40
2019-05-25T03:43:17.346Z,8.65
2019-05-25T03:45:46.828Z,7.62
2019-05-25T03:48:16.212Z,7.47
2019-05-25T03:50:45.600Z,7.40
2019-05-25T03:53:15.060Z,7.33
2019-05-25T03:55:44.456Z,7.37
2019-05-25T03:58:13.847Z,7.55
2019-05-25T04:00:43.310Z,7.20
2019-05-25T04:03:12.692Z,7.58
2019-05-25T04:05:42.099Z,7.15
2019-05-25T04:08:11.545Z,7.87
2019-05-25T04:10:41.011Z,7.20
2019-05-25T04:13:10.557Z,6.83
2019-05-25T04:15:41.963Z,6.75
2019-05-25T04:18:11.344Z,7.35
2019-05-25T04:20:40.731Z,7.53
2019-05-25T04:23:10.128Z,6.80
2019-05-25T04:25:39.587Z,7.20
2019-05-25T04:28:08.975Z,7.50
2019-05-25T04:30:38.382Z,6.90
2019-05-25T04:33:07.763Z,6.70
2019-05-25T04:35:37.147Z,6.90
2019-05-25T04:38:06.527Z,7.75
2019-05-25T04:40:35.936Z,7.45
2019-05-25T04:43:05.394Z,7.62
2019-05-25T04:45:34.788Z,7.58
2019-05-25T04:48:04.426Z,7.12
2019-05-25T04:50:33.832Z,7.20
2019-05-25T04:53:03.217Z,6.45
2019-05-25T04:55:32.684Z,6.97
2019-05-25T04:58:02.106Z,7.40
2019-05-25T05:00:31.547Z,7.10
2019-05-25T05:03:00.960Z,7.15
2019-05-25T05:05:30.369Z,6.70
2019-05-25T05:07:59.825Z,6.05
2019-05-25T05:10:30.344Z,6.58
2019-05-25T05:12:59.820Z,6.22
2019-05-25T05:15:29.271Z,6.50
2019-05-25T05:17:58.654Z,6.35
2019-05-25T05:20:28.050Z,6.67
2019-05-25T05:22:57.524Z,6.42
2019-05-25T05:25:26.893Z,6.55
2019-05-25T05:27:56.274Z,6.55
2019-05-25T05:30:34.203Z,7.22
2019-05-25T05:33:04.148Z,6.90
2019-05-25T05:35:33.776Z,7.28
2019-05-25T05:38:06.053Z,7.75
2019-05-25T05:40:37.124Z,6.35
2019-05-25T05:43:11.298Z,7.80
2019-05-25T05:45:46.600Z,7.42
2019-05-25T05:48:18.122Z,8.28
2019-05-25T05:50:49.343Z,7.75
2019-05-25T05:53:20.960Z,8.03
2019-05-25T05:55:50.340Z,8.13
2019-05-25T05:58:39.059Z,8.00
2019-05-25T06:01:08.454Z,7.25
2019-05-25T06:03:37.859Z,8.93
2019-05-25T06:06:08.310Z,8.43
2019-05-25T06:08:37.786Z,8.08
2019-05-25T06:11:07.168Z,7.60
2019-05-25T06:13:36.561Z,7.90
2019-05-25T06:16:05.960Z,7.50
2019-05-25T06:18:35.344Z,8.38
2019-05-25T06:21:05.588Z,7.95
2019-05-25T06:23:34.967Z,8.05
2019-05-25T06:26:05.774Z,8.13
2019-05-25T06:28:35.160Z,7.00
2019-05-25T06:31:05.624Z,7.15
2019-05-25T06:33:36.090Z,7.42
2019-05-25T06:36:05.489Z,7.50
2019-05-25T06:38:36.504Z,7.10
2019-05-25T06:41:08.539Z,7.50
2019-05-25T06:43:36.984Z,7.62
2019-05-25T06:46:06.572Z,7.10
2019-05-25T06:48:35.998Z,7.22
2019-05-25T06:51:06.437Z,6.37
2019-05-25T06:53:35.816Z,6.90
2019-05-25T06:56:05.219Z,6.17
2019-05-25T06:58:34.596Z,7.80
2019-05-25T07:01:04.338Z,7.05
2019-05-25T07:03:33.771Z,7.08
2019-05-25T07:06:03.196Z,6.87
2019-05-25T07:08:32.579Z,5.60
2019-05-25T07:11:02.067Z,7.03
2019-05-25T07:13:31.458Z,6.70
2019-05-25T07:16:00.924Z,6.17
2019-05-25T07:18:30.378Z,7.62
2019-05-25T07:20:59.858Z,6.78
2019-05-25T07:23:29.242Z,6.65
2019-05-25T07:25:58.619Z,5.20
2019-05-25T07:28:28.078Z,5.92
2019-05-25T07:30:57.555Z,5.62
2019-05-25T07:33:27.026Z,5.30
2019-05-25T07:35:56.404Z,5.47
2019-05-25T07:38:25.807Z,4.95
2019-05-25T07:40:55.259Z,5.53
2019-05-25T07:43:25.689Z,5.35
2019-05-25T07:45:55.153Z,4.72
2019-05-25T07:48:24.620Z,5.80
2019-05-25T07:50:54.007Z,5.85
2019-05-25T07:53:23.472Z,5.25
2019-05-25T07:55:52.860Z,5.45
2019-05-25T07:58:22.317Z,5.70
2019-05-25T08:00:51.707Z,5.62
2019-05-25T08:03:21.112Z,6.42
2019-05-25T08:05:50.499Z,5.87
2019-05-25T08:08:20.139Z,5.12
2019-05-25T08:10:49.587Z,6.35
2019-05-25T08:13:18.972Z,5.92
2019-05-25T08:15:48.347Z,6.10
2019-05-25T08:18:17.739Z,6.60
2019-05-25T08:20:47.548Z,8.13
2019-05-25T08:23:17.102Z,6.58
2019-05-25T08:25:53.715Z,6.70
2019-05-25T08:28:32.767Z,6.65
2019-05-25T08:31:01.274Z,7.47
2019-05-25T08:33:35.282Z,9.03
2019-05-25T08:36:06.446Z,7.12
2019-05-25T08:38:35.847Z,8.75
2019-05-25T08:41:10.438Z,9.95
2019-05-25T08:43:44.839Z,9.38
2019-05-25T08:46:14.272Z,10.03
2019-05-25T08:48:43.794Z,9.85
2019-05-25T08:51:13.303Z,10.78
2019-05-25T08:53:46.406Z,10.43
2019-05-25T08:56:13.879Z,10.43
2019-05-25T08:58:48.531Z,10.93
2019-05-25T09:01:14.426Z,10.55
2019-05-25T09:03:43.931Z,10.48
2019-05-25T09:06:13.375Z,11.55
2019-05-25T09:08:42.858Z,10.48
2019-05-25T09:11:12.864Z,9.85
2019-05-25T09:13:42.263Z,10.40
2019-05-25T09:16:11.672Z,11.03
2019-05-25T09:18:41.120Z,9.83
2019-05-25T09:21:11.545Z,11.18
2019-05-25T09:23:41.007Z,11.28
2019-05-25T09:26:13.348Z,11.57
2019-05-25T09:28:41.712Z,11.25
2019-05-25T09:31:11.203Z,10.53
2019-05-25T09:33:40.609Z,10.55
2019-05-25T09:36:10.069Z,10.98
2019-05-25T09:38:43.157Z,11.88
2019-05-25T09:41:10.552Z,11.30
2019-05-25T09:43:39.956Z,9.95
2019-05-25T09:46:09.425Z,11.50
2019-05-25T09:48:38.829Z,10.35
2019-05-25T09:51:15.245Z,11.48
2019-05-25T09:53:39.494Z,12.37
2019-05-25T09:56:09.059Z,10.55
2019-05-25T09:58:38.450Z,12.20
2019-05-25T10:01:07.854Z,11.65
2019-05-25T10:03:37.267Z,10.55
2019-05-25T10:06:12.233Z,10.53
2019-05-25T10:08:37.871Z,10.35
2019-05-25T10:11:07.347Z,11.15
2019-05-25T10:13:36.757Z,10.68
2019-05-25T10:16:06.193Z,10.88
2019-05-25T10:18:35.655Z,9.45
2019-05-25T10:21:05.125Z,10.25
2019-05-25T10:23:34.683Z,8.98
2019-05-25T10:26:04.093Z,8.25
2019-05-25T10:28:33.901Z,7.87
2019-05-25T10:31:03.313Z,8.18
2019-05-25T10:33:33.112Z,8.43
2019-05-25T10:36:02.729Z,7.78
2019-05-25T10:38:32.196Z,7.70
2019-05-25T10:41:01.614Z,7.55
2019-05-25T10:43:30.987Z,8.53
2019-05-25T10:46:00.393Z,7.47
2019-05-25T10:48:29.779Z,7.10
2019-05-25T10:50:59.188Z,7.35
2019-05-25T10:53:28.656Z,7.70
2019-05-25T10:55:58.128Z,7.00
2019-05-25T10:58:27.620Z,6.28
2019-05-25T11:00:57.041Z,7.00
2019-05-25T11:03:26.454Z,6.28
2019-05-25T11:05:55.964Z,6.65
2019-05-25T11:08:25.347Z,6.37
2019-05-25T11:10:54.971Z,6.75
2019-05-25T11:13:24.343Z,5.60
2019-05-25T11:15:53.727Z,5.95
2019-05-25T11:18:23.284Z,5.95
2019-05-25T11:20:52.715Z,5.95
2019-05-25T11:23:22.088Z,6.00
2019-05-25T11:25:51.579Z,5.83
2019-05-25T11:28:20.968Z,6.03
2019-05-25T11:30:50.820Z,5.33
2019-05-25T11:33:20.310Z,6.05
2019-05-25T11:35:49.693Z,5.78
2019-05-25T11:38:19.090Z,7.17
2019-05-25T11:40:49.635Z,5.80
2019-05-25T11:43:32.334Z,6.05
2019-05-25T11:46:01.725Z,6.22
2019-05-25T11:48:31.183Z,6.95
2019-05-25T11:51:00.595Z,5.90
2019-05-25T11:53:30.052Z,5.90
2019-05-25T11:55:59.518Z,6.15
2019-05-25T11:58:28.896Z,4.80
2019-05-25T12:00:58.360Z,6.10
2019-05-25T12:03:27.740Z,5.67
2019-05-25T12:05:57.360Z,5.58
2019-05-25T12:08:27.783Z,5.35
2019-05-25T12:10:57.202Z,6.03
2019-05-25T12:13:26.683Z,6.00
2019-05-25T12:15:56.214Z,6.05
2019-05-25T12:18:25.765Z,5.75
2019-05-25T12:20:55.224Z,5.80
2019-05-25T12:23:24.620Z,5.83
2019-05-25T12:25:54.007Z,5.67
2019-05-25T12:28:23.397Z,6.30
2019-05-25T12:30:52.864Z,6.15
2019-05-25T12:33:22.345Z,6.00
2019-05-25T12:35:51.831Z,6.25
2019-05-25T12:38:21.294Z,6.28
2019-05-25T12:40:53.741Z,7.40
2019-05-25T12:43:21.828Z,6.92
2019-05-25T12:45:51.319Z,8.05
2019-05-25T12:48:20.870Z,8.08
2019-05-25T12:50:51.334Z,6.92
2019-05-25T12:53:20.799Z,6.62
2019-05-25T12:55:50.200Z,8.48
2019-05-25T12:58:19.589Z,8.13
2019-05-25T13:00:56.068Z,8.15
2019-05-25T13:03:20.212Z,6.65
2019-05-25T13:05:49.623Z,8.75
2019-05-25T13:08:19.080Z,8.65
2019-05-25T13:10:49.221Z,8.85
2019-05-25T13:13:18.624Z,9.58
2019-05-25T13:15:48.127Z,10.15
2019-05-25T13:18:17.576Z,8.03
2019-05-25T13:20:46.970Z,8.15
2019-05-25T13:23:16.396Z,8.48
2019-05-25T13:25:45.822Z,8.80
2019-05-25T13:28:15.208Z,9.60
2019-05-25T13:30:44.608Z,8.55
2019-05-25T13:33:14.005Z,7.78
2019-05-25T13:35:43.947Z,8.78
2019-05-25T13:38:13.499Z,8.93
2019-05-25T13:40:43.236Z,9.40
2019-05-25T13:43:12.651Z,7.12
2019-05-25T13:45:45.792Z,6.85
2019-05-25T13:48:13.256Z,9.28
2019-05-25T13:50:43.034Z,9.15
2019-05-25T13:53:13.576Z,13.90
2019-05-25T13:55:43.095Z,13.30
2019-05-25T13:58:12.556Z,14.30
2019-05-25T14:00:41.975Z,13.28
2019-05-25T14:03:11.559Z,13.13
2019-05-25T14:05:40.976Z,10.82
2019-05-25T14:08:10.532Z,14.73
2019-05-25T14:10:39.934Z,12.40
2019-05-25T14:13:09.349Z,11.40
2019-05-25T14:15:38.826Z,11.48
2019-05-25T14:18:08.969Z,15.55
2019-05-25T14:20:38.460Z,16.77
2019-05-25T14:23:07.873Z,14.50
2019-05-25T14:25:37.315Z,12.23
2019-05-25T14:28:06.706Z,12.43
2019-05-25T14:30:36.109Z,12.63
2019-05-25T14:33:05.581Z,11.93
2019-05-25T14:35:34.988Z,10.82
2019-05-25T14:38:04.561Z,12.35
2019-05-25T14:40:33.997Z,11.05
2019-05-25T14:43:03.406Z,11.80
2019-05-25T14:45:32.831Z,11.83
2019-05-25T14:48:02.301Z,11.00
2019-05-25T14:50:31.708Z,12.73
2019-05-25T14:53:01.116Z,12.60
2019-05-25T14:55:30.522Z,12.50
2019-05-25T14:57:59.925Z,11.60
2019-05-25T15:00:29.409Z,11.73
2019-05-25T15:02:58.868Z,13.70
2019-05-25T15:05:28.268Z,13.95
2019-05-25T15:07:57.664Z,13.10
2019-05-25T15:10:28.137Z,13.10
2019-05-25T15:12:57.534Z,13.40
2019-05-25T15:15:26.929Z,13.32
2019-05-25T15:17:56.333Z,12.75
2019-05-25T15:20:25.747Z,12.68
2019-05-25T15:22:55.597Z,14.07
2019-05-25T15:25:25.145Z,13.85
2019-05-25T15:27:54.612Z,14.95
2019-05-25T15:30:24.097Z,15.53
2019-05-25T15:32:53.715Z,14.58
2019-05-25T15:35:23.124Z,15.90
2019-05-25T15:37:52.541Z,16.55
2019-05-25T15:40:22.194Z,14.93
2019-05-25T15:42:51.591Z,16.35
2019-05-25T15:45:21.677Z,14.43
2019-05-25T15:47:51.134Z,14.30
2019-05-25T15:50:21.392Z,15.32
2019-05-25T15:52:51.010Z,14.87
2019-05-25T15:55:34.035Z,13.20
2019-05-25T15:58:04.144Z,13.05
2019-05-25T16:00:45.904Z,14.40
2019-05-25T16:03:17.040Z,18.67
2019-05-25T16:05:47.814Z,17.50
2019-05-25T16:08:18.990Z,19.92
2019-05-25T16:10:48.722Z,21.55
2019-05-25T16:13:18.296Z,21.07
2019-05-25T16:15:47.693Z,23.65
2019-05-25T16:18:17.168Z,21.68
2019-05-25T16:20:46.632Z,21.93
2019-05-25T16:23:16.041Z,20.77
2019-05-25T16:25:45.532Z,18.65
2019-05-25T16:28:14.984Z,17.90
2019-05-25T16:30:44.400Z,17.10
2019-05-25T16:33:14.766Z,15.48
2019-05-25T16:35:58.878Z,13.60
2019-05-25T16:38:28.432Z,13.70
2019-05-25T16:40:57.831Z,12.18
2019-05-25T16:43:27.255Z,12.20
2019-05-25T16:45:56.662Z,10.25
2019-05-25T16:48:26.166Z,9.48
2019-05-25T16:50:55.563Z,9.20
2019-05-25T16:53:25.027Z,8.50
2019-05-25T16:55:54.969Z,7.08
2019-05-25T16:58:24.581Z,7.35
2019-05-25T17:00:53.979Z,7.60
2019-05-25T17:03:27.966Z,6.92
2019-05-25T17:05:54.873Z,7.30
2019-05-25T17:08:24.405Z,7.70
2019-05-25T17:10:53.802Z,6.75
2019-05-25T17:13:23.176Z,7.30
2019-05-25T17:15:52.585Z,7.25
2019-05-25T17:18:22.036Z,7.53
2019-05-25T17:20:51.500Z,7.08
2019-05-25T17:23:21.280Z,7.15
2019-05-25T17:25:50.669Z,6.87
2019-05-25T17:28:20.315Z,6.45
2019-05-25T17:30:49.729Z,7.15
2019-05-25T17:33:19.203Z,6.90
2019-05-25T17:35:49.008Z,7.30
2019-05-25T17:38:18.454Z,7.83
2019-05-25T17:40:48.149Z,9.15
2019-05-25T17:43:17.584Z,9.55
2019-05-25T17:45:47.172Z,10.23
2019-05-25T17:48:16.644Z,9.88
2019-05-25T17:50:46.081Z,10.60
2019-05-25T17:53:18.200Z,11.28
2019-05-25T17:55:47.672Z,11.50
2019-05-25T17:58:17.156Z,12.18
2019-05-25T18:00:48.555Z,12.18
2019-05-25T18:03:18.186Z,13.38
2019-05-25T18:05:47.922Z,14.10
2019-05-25T18:08:17.393Z,14.15
2019-05-25T18:10:53.592Z,12.55
2019-05-25T18:13:18.207Z,13.60
2019-05-25T18:15:47.711Z,12.33
2019-05-25T18:18:17.096Z,13.48
2019-05-25T18:20:46.875Z,13.62
2019-05-25T18:23:16.481Z,14.33
2019-05-25T18:25:46.018Z,15.53
2019-05-25T18:28:15.437Z,16.90
2019-05-25T18:30:44.845Z,20.60
2019-05-25T18:33:15.290Z,17.40
2019-05-25T18:35:44.769Z,19.65
2019-05-25T18:38:14.199Z,23.02
2019-05-25T18:40:43.614Z,25.55
2019-05-25T18:43:14.107Z,21.50
2019-05-25T18:45:43.669Z,22.10
2019-05-25T18:48:13.260Z,23.80
2019-05-25T18:50:43.277Z,25.43
2019-05-25T18:53:12.684Z,23.38
2019-05-25T18:55:42.160Z,24.45
2019-05-25T18:58:11.595Z,26.02
2019-05-25T19:00:41.063Z,28.10
2019-05-25T19:03:10.606Z,24.98
2019-05-25T19:05:40.009Z,29.37
2019-05-25T19:08:09.651Z,26.33
2019-05-25T19:10:40.011Z,28.87
2019-05-25T19:13:09.684Z,28.55
2019-05-25T19:15:39.087Z,28.23
2019-05-25T19:18:09.472Z,31.87
2019-05-25T19:20:38.949Z,30.00
2019-05-25T19:23:08.529Z,30.95
2019-05-25T19:25:37.992Z,31.75
2019-05-25T19:28:07.407Z,31.40
2019-05-25T19:30:37.075Z,32.00
2019-05-25T19:33:06.606Z,30.92
2019-05-25T19:35:36.028Z,32.85
2019-05-25T19:38:05.440Z,34.03
2019-05-25T19:40:34.932Z,35.08
2019-05-25T19:43:04.382Z,30.80
2019-05-25T19:45:33.788Z,28.75
2019-05-25T19:48:03.521Z,27.32
2019-05-25T19:50:33.005Z,25.27
2019-05-25T19:53:02.479Z,23.25
2019-05-25T19:55:31.961Z,20.68
2019-05-25T19:58:01.370Z,17.65
2019-05-25T20:00:30.842Z,19.07
2019-05-25T20:03:00.308Z,21.50
2019-05-25T20:05:29.787Z,18.12
2019-05-25T20:07:59.191Z,18.17
2019-05-25T20:10:28.632Z,16.05
2019-05-25T20:12:58.034Z,15.00
2019-05-25T20:15:27.532Z,13.38
2019-05-25T20:17:57.005Z,13.58
2019-05-25T20:20:26.439Z,11.97
2019-05-25T20:22:55.836Z,11.75
2019-05-25T20:25:25.317Z,12.20
2019-05-25T20:27:55.496Z,9.70
2019-05-25T20:30:24.901Z,10.48
2019-05-25T20:32:54.292Z,10.45
2019-05-25T20:35:33.104Z,10.00
2019-05-25T20:37:54.782Z,9.18
2019-05-25T20:40:25.329Z,8.68
2019-05-25T20:42:54.796Z,8.35
2019-05-25T20:45:24.208Z,9.00
2019-05-25T20:47:53.660Z,8.70
2019-05-25T20:50:23.061Z,7.95
2019-05-25T20:52:52.441Z,7.65
2019-05-25T20:55:21.868Z,8.15
2019-05-25T20:57:51.376Z,7.45
2019-05-25T21:00:24.112Z,7.20
2019-05-25T21:03:05.123Z,7.30
2019-05-25T21:05:23.364Z,7.80
2019-05-25T21:07:53.586Z,7.45
2019-05-25T21:10:23.035Z,7.80
2019-05-25T21:12:52.432Z,7.80
2019-05-25T21:15:22.005Z,7.03
2019-05-25T21:17:51.463Z,7.37
2019-05-25T21:20:20.853Z,6.75
2019-05-25T21:22:50.478Z,7.12
2019-05-25T21:25:19.963Z,6.58
2019-05-25T21:27:49.359Z,7.05
2019-05-25T21:30:19.280Z,6.75
2019-05-25T21:32:48.733Z,6.33
2019-05-25T21:35:18.165Z,6.70
2019-05-25T21:37:47.556Z,6.45
2019-05-25T21:40:17.884Z,6.60
2019-05-25T21:42:47.319Z,5.97
2019-05-25T21:45:16.943Z,6.25
2019-05-25T21:47:46.407Z,6.97
2019-05-25T21:50:16.020Z,6.95
2019-05-25T21:52:45.499Z,7.12
2019-05-25T21:55:15.331Z,6.90
2019-05-25T21:57:44.723Z,7.58
2019-05-25T22:00:17.978Z,7.80
2019-05-25T22:02:49.614Z,8.48
2019-05-25T22:05:19.249Z,7.53
2019-05-25T22:07:48.659Z,7.22
2019-05-25T22:10:18.412Z,6.65
2019-05-25T22:12:47.956Z,6.80
2019-05-25T22:15:18.963Z,6.78
2019-05-25T22:18:02.251Z,6.85
2019-05-25T22:20:31.723Z,7.15
2019-05-25T22:23:01.130Z,7.25
2019-05-25T22:25:30.781Z,7.03
2019-05-25T22:28:00.185Z,6.60
2019-05-25T22:30:29.570Z,6.45
2019-05-25T22:32:58.977Z,7.08
2019-05-25T22:35:28.705Z,6.17
2019-05-25T22:37:58.104Z,6.83
2019-05-25T22:40:27.507Z,6.65
2019-05-25T22:42:56.890Z,6.35
2019-05-25T22:45:26.643Z,7.92
2019-05-25T22:47:56.090Z,6.95
2019-05-25T22:50:25.663Z,6.78
2019-05-25T22:52:55.048Z,6.25
2019-05-25T22:55:24.445Z,6.28
2019-05-25T22:57:53.823Z,6.90
2019-05-25T23:00:23.579Z,6.22
2019-05-25T23:02:52.951Z,6.65
2019-05-25T23:05:22.421Z,7.45
2019-05-25T23:07:51.807Z,6.83
2019-05-25T23:10:21.428Z,7.45
2019-05-25T23:12:50.863Z,7.00
2019-05-25T23:15:20.417Z,7.78
2019-05-25T23:17:49.791Z,6.72
2019-05-25T23:20:19.457Z,6.17
2019-05-25T23:22:48.957Z,6.97
2019-05-25T23:25:18.424Z,6.87
2019-05-25T23:27:47.887Z,7.62
2019-05-25T23:30:18.023Z,7.10
2019-05-25T23:32:47.423Z,7.15
2019-05-25T23:35:16.808Z,7.03
2019-05-25T23:37:46.199Z,6.67
2019-05-25T23:40:16.040Z,6.40
2019-05-25T23:42:45.572Z,6.92
2019-05-25T23:45:15.523Z,7.10
2019-05-25T23:47:44.967Z,7.25
2019-05-25T23:50:15.513Z,6.60
2019-05-25T23:52:44.908Z,6.92
2019-05-25T23:55:14.627Z,6.37
2019-05-25T23:57:44.032Z,7.15
